Time;durP1;ratioP1;P1;durP2;ratioP2;P2;SDS_P1;SDS_P2;PMS_P1;PMS_P2;Temp;Humidity;BMP_temperature;BMP_pressure;BME280_temperature;BME280_humidity;BME280_pressure;Samples;Min_cycle;Max_cycle;Signal;HPM_P1;HPM_P2
2022/03/31 00:01:33;;;;;;;20.42;13.52;;;10.80;99.90;;;;;;5052315;28;20175;-76
2022/03/31 00:03:58;;;;;;;27.30;13.70;;;10.80;99.90;;;;;;5051024;28;20174;-77
2022/03/31 00:06:24;;;;;;;22.42;13.75;;;11.00;99.90;;;;;;5052252;28;20609;-77
2022/03/31 00:08:49;;;;;;;25.55;13.55;;;11.20;99.90;;;;;;5050887;28;20641;-77
2022/03/31 00:11:15;;;;;;;21.38;13.43;;;11.40;99.90;;;;;;5052280;28;20199;-77
2022/03/31 00:13:42;;;;;;;24.60;14.80;;;11.50;99.90;;;;;;5052146;28;20528;-77
2022/03/31 00:16:07;;;;;;;24.58;13.90;;;11.40;99.90;;;;;;5050715;28;20190;-77
2022/03/31 00:18:33;;;;;;;25.15;14.20;;;11.20;99.90;;;;;;5051931;28;20179;-77
2022/03/31 00:21:00;;;;;;;21.08;13.75;;;10.90;99.90;;;;;;5051468;28;20238;-77
2022/03/31 00:23:26;;;;;;;22.83;13.00;;;10.90;99.90;;;;;;5051850;28;20262;-77
2022/03/31 00:25:52;;;;;;;25.17;13.88;;;10.90;99.90;;;;;;5051868;28;20603;-77
2022/03/31 00:28:19;;;;;;;27.40;14.07;;;10.90;99.90;;;;;;5050338;28;20191;-77
2022/03/31 00:30:45;;;;;;;25.83;14.15;;;10.90;99.90;;;;;;5051897;28;20203;-77
2022/03/31 00:33:10;;;;;;;23.10;14.13;;;11.00;99.90;;;;;;5051798;28;20170;-77
2022/03/31 00:35:36;;;;;;;23.88;13.77;;;10.80;99.90;;;;;;5051862;28;20200;-77
2022/03/31 00:38:01;;;;;;;23.75;13.98;;;10.60;99.90;;;;;;5050592;28;20227;-77
2022/03/31 00:40:27;;;;;;;18.80;14.18;;;10.80;99.90;;;;;;5051970;28;20167;-77
2022/03/31 00:42:56;;;;;;;22.48;14.23;;;10.80;99.90;;;;;;5051909;28;20554;-78
2022/03/31 00:45:24;;;;;;;26.65;16.20;;;10.90;99.90;;;;;;5051810;28;20252;-77
2022/03/31 00:47:51;;;;;;;21.15;14.25;;;10.90;99.90;;;;;;5050578;28;20198;-77
2022/03/31 00:50:17;;;;;;;25.25;13.95;;;10.90;99.90;;;;;;5051628;28;20944;-77
2022/03/31 00:52:43;;;;;;;27.27;14.65;;;11.00;99.90;;;;;;5050540;28;20172;-78
2022/03/31 00:55:11;;;;;;;26.05;15.02;;;10.90;99.90;;;;;;5055869;28;20183;-77
2022/03/31 00:57:37;;;;;;;21.20;14.40;;;10.90;99.90;;;;;;5055144;28;20191;-78
2022/03/31 01:00:05;;;;;;;27.73;14.95;;;11.00;99.90;;;;;;5055360;28;20159;-77
2022/03/31 01:02:32;;;;;;;21.08;13.85;;;10.60;99.90;;;;;;5055427;28;20163;-77
2022/03/31 01:05:02;;;;;;;25.25;16.00;;;10.50;99.90;;;;;;5055232;28;20181;-77
2022/03/31 01:07:28;;;;;;;30.17;15.88;;;10.30;99.90;;;;;;5055557;28;20224;-77
2022/03/31 01:09:56;;;;;;;28.50;14.25;;;10.10;99.90;;;;;;5055124;28;20191;-77
2022/03/31 01:12:22;;;;;;;30.58;14.77;;;10.20;99.90;;;;;;5053883;28;20163;-77
2022/03/31 01:15:06;;;;;;;23.30;14.52;;;10.20;99.90;;;;;;5055227;28;20175;-77
2022/03/31 01:17:33;;;;;;;27.90;14.57;;;10.20;99.90;;;;;;5054244;28;20187;-77
2022/03/31 01:19:58;;;;;;;27.15;14.98;;;10.10;99.90;;;;;;5053884;28;20175;-77
2022/03/31 01:22:27;;;;;;;25.60;15.82;;;10.30;99.90;;;;;;5053654;28;20504;-77
2022/03/31 01:24:53;;;;;;;23.95;15.45;;;10.50;99.90;;;;;;5054825;28;20536;-77
2022/03/31 01:27:19;;;;;;;26.25;16.05;;;10.80;99.90;;;;;;5053056;28;20201;-77
2022/03/31 01:29:44;;;;;;;26.65;15.70;;;10.80;99.90;;;;;;5054881;28;20203;-78
2022/03/31 01:32:11;;;;;;;25.52;16.90;;;10.60;99.90;;;;;;5054903;28;20178;-77
2022/03/31 01:34:37;;;;;;;23.52;16.38;;;10.50;99.90;;;;;;5054595;28;20167;-77
2022/03/31 01:37:04;;;;;;;24.60;15.10;;;10.60;99.90;;;;;;5054727;28;20191;-77
2022/03/31 01:39:29;;;;;;;30.83;15.95;;;10.60;99.90;;;;;;5054757;28;20567;-77
2022/03/31 01:41:55;;;;;;;24.38;16.00;;;10.60;99.90;;;;;;5054622;28;20174;-76
2022/03/31 01:44:21;;;;;;;26.35;15.65;;;10.60;99.90;;;;;;5054497;28;20159;-77
2022/03/31 01:46:48;;;;;;;27.20;16.23;;;10.60;99.90;;;;;;5054493;28;20253;-76
2022/03/31 01:49:14;;;;;;;29.95;16.02;;;10.60;99.90;;;;;;5054501;28;20201;-77
2022/03/31 01:51:40;;;;;;;24.30;15.07;;;10.60;99.90;;;;;;5053953;28;20199;-76
2022/03/31 01:54:06;;;;;;;29.15;16.25;;;10.20;99.90;;;;;;5054196;28;20167;-77
2022/03/31 01:56:32;;;;;;;25.58;15.00;;;10.30;99.90;;;;;;5053089;28;20549;-78
2022/03/31 01:58:58;;;;;;;23.30;13.93;;;10.40;99.90;;;;;;5054157;28;20187;-76
2022/03/31 02:01:23;;;;;;;25.13;15.13;;;10.40;99.90;;;;;;5054373;28;20167;-77
2022/03/31 02:03:49;;;;;;;21.63;14.27;;;10.80;99.90;;;;;;5054113;28;20190;-76
2022/03/31 02:06:14;;;;;;;24.88;15.88;;;10.70;99.90;;;;;;5054316;28;20172;-77
2022/03/31 02:08:40;;;;;;;28.95;15.38;;;10.70;99.90;;;;;;5054021;28;20183;-76
2022/03/31 02:11:05;;;;;;;25.52;15.55;;;10.70;99.90;;;;;;5053848;28;20254;-76
2022/03/31 02:13:31;;;;;;;32.03;14.98;;;10.80;99.90;;;;;;5052613;28;20644;-77
2022/03/31 02:15:57;;;;;;;26.85;15.55;;;10.70;99.90;;;;;;5054266;28;20258;-76
2022/03/31 02:18:22;;;;;;;23.88;14.25;;;10.90;99.90;;;;;;5054088;28;20194;-77
2022/03/31 02:20:48;;;;;;;27.98;15.15;;;10.90;99.90;;;;;;5053701;28;20171;-76
2022/03/31 02:23:13;;;;;;;25.23;14.80;;;11.00;99.90;;;;;;5053647;28;20171;-76
2022/03/31 02:25:39;;;;;;;24.23;13.43;;;10.80;99.90;;;;;;5053518;28;20171;-77
2022/03/31 02:28:05;;;;;;;13.55;10.75;;;10.80;99.90;;;;;;5053647;28;20528;-76
2022/03/31 02:30:31;;;;;;;9.77;8.68;;;10.70;99.90;;;;;;5053345;28;20284;-76
2022/03/31 02:32:59;;;;;;;9.27;8.38;;;10.20;99.90;;;;;;5053798;28;20159;-76
2022/03/31 02:35:25;;;;;;;12.45;8.35;;;9.90;99.90;;;;;;5053576;28;20667;-76
2022/03/31 02:37:51;;;;;;;8.23;7.25;;;9.80;99.90;;;;;;5051887;28;20187;-77
2022/03/31 02:40:16;;;;;;;18.58;7.07;;;9.90;99.90;;;;;;5053492;28;20167;-76
2022/03/31 02:42:42;;;;;;;7.35;6.35;;;9.70;99.90;;;;;;5053435;28;20177;-77
2022/03/31 02:45:08;;;;;;;7.03;5.90;;;9.60;99.90;;;;;;5053591;28;20828;-76
2022/03/31 02:47:36;;;;;;;6.88;6.13;;;9.50;99.90;;;;;;5053611;28;20187;-77
2022/03/31 02:50:05;;;;;;;6.45;5.82;;;9.20;99.90;;;;;;5053235;28;20233;-76
2022/03/31 02:55:24;;;;;;;6.57;5.40;;;9.30;99.90;;;;;;5053283;28;20171;-76
2022/03/31 02:55:25;;;;;;;5.85;5.25;;;9.40;99.90;;;;;;5052807;28;20619;-76
2022/03/31 02:57:51;;;;;;;8.25;5.40;;;9.20;99.90;;;;;;5052227;28;20186;-76
2022/03/31 03:00:18;;;;;;;5.90;5.03;;;9.10;99.90;;;;;;5052171;28;20636;-77
2022/03/31 03:02:43;;;;;;;7.18;5.30;;;9.00;99.90;;;;;;5052333;28;20168;-77
2022/03/31 03:05:09;;;;;;;6.07;5.28;;;9.10;99.90;;;;;;5051850;28;20226;-78
2022/03/31 03:07:35;;;;;;;7.32;5.90;;;8.90;99.90;;;;;;5052049;28;20193;-75
2022/03/31 03:10:00;;;;;;;6.40;5.35;;;8.80;99.90;;;;;;5051956;28;20290;-77
2022/03/31 03:12:26;;;;;;;8.27;5.55;;;8.60;99.90;;;;;;5051915;28;20198;-76
2022/03/31 03:14:51;;;;;;;7.60;5.05;;;8.60;99.90;;;;;;5050639;28;20517;-76
2022/03/31 03:17:17;;;;;;;7.65;6.38;;;8.50;99.90;;;;;;5051444;28;20201;-76
2022/03/31 03:19:43;;;;;;;5.55;5.03;;;8.40;99.90;;;;;;5051663;28;20170;-76
2022/03/31 03:22:09;;;;;;;8.95;5.57;;;8.30;99.90;;;;;;5052197;28;20163;-77
2022/03/31 03:24:35;;;;;;;5.03;4.53;;;8.30;99.90;;;;;;5052418;28;20163;-77
2022/03/31 03:27:00;;;;;;;6.70;5.25;;;8.30;99.90;;;;;;5052078;28;20195;-77
2022/03/31 03:29:26;;;;;;;10.95;5.72;;;8.20;99.90;;;;;;5051933;28;20167;-78
2022/03/31 03:31:52;;;;;;;7.35;6.15;;;8.20;99.90;;;;;;5051996;28;20171;-78
2022/03/31 03:34:18;;;;;;;5.95;5.43;;;8.20;99.90;;;;;;5051611;28;20163;-77
2022/03/31 03:36:44;;;;;;;6.00;4.72;;;8.30;99.90;;;;;;5051910;28;20217;-77
2022/03/31 03:39:11;;;;;;;6.88;4.88;;;8.20;99.90;;;;;;5051751;28;20171;-77
2022/03/31 03:41:37;;;;;;;9.55;4.22;;;8.20;99.90;;;;;;5051506;28;20619;-77
2022/03/31 03:44:03;;;;;;;5.50;4.95;;;8.10;99.90;;;;;;5051959;28;20221;-77
2022/03/31 03:46:29;;;;;;;7.18;4.88;;;7.90;99.90;;;;;;5050499;28;20163;-77
2022/03/31 03:48:55;;;;;;;5.50;4.90;;;7.70;99.90;;;;;;5050155;28;20652;-77
2022/03/31 03:51:23;;;;;;;7.07;5.35;;;7.40;99.90;;;;;;5051331;28;20198;-77
2022/03/31 03:53:48;;;;;;;6.70;5.47;;;7.20;99.90;;;;;;5051471;28;20250;-77
2022/03/31 03:56:16;;;;;;;13.32;5.63;;;7.00;99.90;;;;;;5014435;28;1089499;-77
2022/03/31 03:58:42;;;;;;;7.15;4.82;;;7.00;99.90;;;;;;5052171;28;20202;-78
2022/03/31 04:01:08;;;;;;;6.07;5.47;;;7.10;99.90;;;;;;5052935;28;20167;-77
2022/03/31 04:03:34;;;;;;;5.88;4.40;;;7.10;99.90;;;;;;5052627;28;20169;-77
2022/03/31 04:06:00;;;;;;;5.25;4.43;;;7.00;99.90;;;;;;5052617;28;20249;-76
2022/03/31 04:08:26;;;;;;;10.85;4.90;;;6.90;99.90;;;;;;5052956;28;20648;-77
2022/03/31 04:10:52;;;;;;;4.70;4.30;;;6.70;99.90;;;;;;5052734;28;20236;-77
2022/03/31 04:13:17;;;;;;;6.95;3.90;;;6.60;99.90;;;;;;5052895;28;20596;-77
2022/03/31 04:15:43;;;;;;;4.70;4.05;;;6.40;99.90;;;;;;5051560;28;20178;-77
2022/03/31 04:18:09;;;;;;;4.22;3.83;;;6.50;99.90;;;;;;5053544;28;20524;-77
2022/03/31 04:20:35;;;;;;;7.90;3.42;;;6.40;99.90;;;;;;5051164;28;20163;-77
2022/03/31 04:23:02;;;;;;;4.43;3.30;;;6.20;99.90;;;;;;5053226;28;20581;-77
2022/03/31 04:25:27;;;;;;;3.08;2.78;;;6.00;99.90;;;;;;5052429;28;20627;-78
2022/03/31 04:27:53;;;;;;;5.18;3.45;;;5.90;99.90;;;;;;5052645;28;20187;-77
2022/03/31 04:30:21;;;;;;;5.05;3.33;;;5.60;99.90;;;;;;5056343;28;20214;-77
2022/03/31 04:32:47;;;;;;;2.50;2.22;;;5.40;99.90;;;;;;5056265;28;20167;-77
2022/03/31 04:35:14;;;;;;;2.97;2.70;;;5.30;99.90;;;;;;5056099;28;20274;-77
2022/03/31 04:37:40;;;;;;;2.60;2.40;;;5.20;99.90;;;;;;5054749;28;20626;-76
2022/03/31 04:40:08;;;;;;;2.38;2.17;;;4.90;99.90;;;;;;5055963;28;20159;-76
2022/03/31 04:42:34;;;;;;;2.08;1.88;;;4.70;99.90;;;;;;5054643;28;20536;-76
2022/03/31 04:45:02;;;;;;;4.30;2.83;;;4.60;99.90;;;;;;5055843;28;20724;-76
2022/03/31 04:47:28;;;;;;;3.03;2.63;;;4.70;99.90;;;;;;5055963;28;20274;-76
2022/03/31 04:49:54;;;;;;;4.20;2.40;;;4.60;99.90;;;;;;5055872;28;20191;-76
2022/03/31 04:52:20;;;;;;;1.95;1.85;;;4.60;99.90;;;;;;5055948;28;20186;-77
2022/03/31 04:54:46;;;;;;;1.90;1.80;;;4.50;99.90;;;;;;5055897;28;20181;-77
2022/03/31 04:57:13;;;;;;;1.73;1.63;;;4.60;99.90;;;;;;5055416;28;20266;-76
2022/03/31 04:59:39;;;;;;;2.13;1.92;;;4.60;99.90;;;;;;5055472;28;20181;-77
2022/03/31 05:02:05;;;;;;;2.63;2.42;;;4.40;99.90;;;;;;5055683;28;20167;-77
2022/03/31 05:04:31;;;;;;;3.70;2.63;;;4.30;99.90;;;;;;5055734;28;20285;-76
2022/03/31 05:06:56;;;;;;;4.10;3.70;;;4.10;99.90;;;;;;5054002;28;20159;-76
2022/03/31 05:09:22;;;;;;;2.88;2.67;;;4.10;99.90;;;;;;5055462;28;20164;-76
2022/03/31 05:11:48;;;;;;;5.45;3.15;;;4.10;99.90;;;;;;5055215;28;20175;-76
2022/03/31 05:14:13;;;;;;;4.32;3.92;;;4.20;99.90;;;;;;5055313;28;20190;-76
2022/03/31 05:16:39;;;;;;;4.45;4.03;;;4.20;99.90;;;;;;5054955;28;20171;-75
2022/03/31 05:19:04;;;;;;;4.47;4.07;;;4.10;99.90;;;;;;5054649;28;20236;-76
2022/03/31 05:21:30;;;;;;;3.90;3.60;;;4.10;99.90;;;;;;5055234;28;20175;-76
2022/03/31 05:23:56;;;;;;;3.58;3.28;;;4.20;99.90;;;;;;5055449;28;20167;-76
2022/03/31 05:26:21;;;;;;;2.30;2.10;;;4.40;99.90;;;;;;5054965;28;20546;-76
2022/03/31 05:28:47;;;;;;;2.05;1.95;;;4.40;99.90;;;;;;5054658;28;20539;-76
2022/03/31 05:31:12;;;;;;;2.53;2.33;;;4.30;99.90;;;;;;5055074;28;20230;-76
2022/03/31 05:33:38;;;;;;;2.33;2.13;;;4.30;99.90;;;;;;5054880;28;20174;-83
2022/03/31 05:36:04;;;;;;;2.33;2.13;;;4.40;99.90;;;;;;5054717;28;20167;-77
2022/03/31 05:38:29;;;;;;;2.00;1.80;;;4.60;99.90;;;;;;5054160;28;20248;-75
2022/03/31 05:40:55;;;;;;;1.75;1.65;;;4.60;99.90;;;;;;5054272;28;20186;-76
2022/03/31 05:43:23;;;;;;;1.90;1.80;;;4.40;99.90;;;;;;5054437;28;20163;-76
2022/03/31 05:45:50;;;;;;;1.83;1.70;;;4.50;99.90;;;;;;5054646;28;20547;-77
2022/03/31 05:48:15;;;;;;;1.88;1.77;;;4.50;99.90;;;;;;5054842;28;20266;-77
2022/03/31 05:50:41;;;;;;;2.22;1.50;;;4.40;99.90;;;;;;5054396;28;20205;-76
2022/03/31 05:53:07;;;;;;;1.90;1.80;;;4.30;99.90;;;;;;5054507;28;20229;-77
2022/03/31 05:55:32;;;;;;;2.08;1.90;;;4.40;99.90;;;;;;5054500;28;20193;-77
2022/03/31 05:57:58;;;;;;;2.13;1.85;;;4.40;99.90;;;;;;5054194;28;21105;-77
2022/03/31 06:00:24;;;;;;;2.60;2.40;;;4.60;99.90;;;;;;5052795;28;20167;-78
2022/03/31 06:02:52;;;;;;;2.50;2.20;;;4.60;99.90;;;;;;5054136;28;20171;-78
2022/03/31 06:05:19;;;;;;;2.97;2.67;;;4.40;99.90;;;;;;5054712;28;20167;-77
2022/03/31 06:07:45;;;;;;;4.20;3.30;;;4.30;99.90;;;;;;5054108;28;20183;-77
2022/03/31 06:10:11;;;;;;;6.20;3.40;;;4.40;99.90;;;;;;5054028;28;20303;-78
2022/03/31 06:12:37;;;;;;;3.92;3.63;;;4.50;99.90;;;;;;5053740;28;20323;-77
2022/03/31 06:15:05;;;;;;;3.25;3.03;;;4.50;99.90;;;;;;5053698;28;20167;-77
2022/03/31 06:17:30;;;;;;;2.60;2.40;;;4.50;99.90;;;;;;5054065;28;20202;-77
2022/03/31 06:19:56;;;;;;;3.42;3.13;;;4.60;99.90;;;;;;5053906;28;20167;-77
2022/03/31 06:22:22;;;;;;;9.40;3.88;;;4.80;99.90;;;;;;5054053;28;20674;-77
2022/03/31 06:24:47;;;;;;;6.88;3.78;;;4.90;99.90;;;;;;5053988;28;20186;-77
2022/03/31 06:27:13;;;;;;;3.60;3.30;;;4.70;99.90;;;;;;5053324;28;20647;-77
2022/03/31 06:29:42;;;;;;;3.42;3.13;;;4.70;99.90;;;;;;5053612;28;20183;-78
2022/03/31 06:32:08;;;;;;;4.57;3.75;;;4.70;99.90;;;;;;5054131;28;20254;-76
2022/03/31 06:34:36;;;;;;;4.78;4.38;;;4.70;99.90;;;;;;5054817;28;20198;-77
2022/03/31 06:37:01;;;;;;;3.85;3.50;;;4.50;99.90;;;;;;5054631;28;20189;-77
2022/03/31 06:39:27;;;;;;;4.60;4.20;;;4.50;99.90;;;;;;5055394;28;20214;-76
2022/03/31 06:41:53;;;;;;;4.47;4.15;;;4.50;99.90;;;;;;5055512;28;20578;-76
2022/03/31 06:44:21;;;;;;;4.45;4.00;;;4.50;99.90;;;;;;5054398;28;20171;-77
2022/03/31 06:46:47;;;;;;;4.13;3.80;;;4.50;99.90;;;;;;5055606;28;20163;-79
2022/03/31 06:49:13;;;;;;;5.63;5.22;;;4.60;99.90;;;;;;5052596;28;20194;-77
2022/03/31 06:51:38;;;;;;;7.22;6.22;;;4.50;99.90;;;;;;5052801;28;20516;-77
2022/03/31 06:54:04;;;;;;;8.15;6.15;;;4.60;99.90;;;;;;5053935;28;20163;-77
2022/03/31 06:56:31;;;;;;;6.90;6.30;;;4.70;99.90;;;;;;5053303;28;20194;-77
2022/03/31 06:58:59;;;;;;;8.98;7.05;;;4.60;99.90;;;;;;5054209;28;20339;-79
2022/03/31 07:01:25;;;;;;;7.50;6.80;;;4.70;99.90;;;;;;5051130;28;20207;-78
2022/03/31 07:03:51;;;;;;;9.15;7.53;;;4.70;99.90;;;;;;5051303;28;20540;-78
2022/03/31 07:06:18;;;;;;;8.40;7.60;;;4.70;99.90;;;;;;5053693;28;20167;-78
2022/03/31 07:08:44;;;;;;;6.78;6.25;;;4.70;99.90;;;;;;5053487;28;20187;-79
2022/03/31 07:11:10;;;;;;;6.85;6.25;;;4.70;99.90;;;;;;5051653;28;20222;-77
2022/03/31 07:13:36;;;;;;;7.25;6.57;;;4.60;99.90;;;;;;5052212;28;20168;-76
2022/03/31 07:16:02;;;;;;;10.52;6.35;;;4.40;99.90;;;;;;5052181;28;20179;-77
2022/03/31 07:18:28;;;;;;;9.80;6.05;;;4.50;99.90;;;;;;5033315;28;20203;-78
2022/03/31 07:20:54;;;;;;;5.47;5.00;;;4.50;99.90;;;;;;5049367;28;20195;-79
2022/03/31 07:23:21;;;;;;;6.22;5.32;;;4.50;99.90;;;;;;5053759;28;20235;-78
2022/03/31 07:25:47;;;;;;;5.63;4.90;;;4.50;99.90;;;;;;5052833;28;20163;-79
2022/03/31 07:28:14;;;;;;;4.57;4.18;;;4.70;99.90;;;;;;5050889;28;20622;-79
2022/03/31 07:30:39;;;;;;;5.38;4.30;;;4.50;99.90;;;;;;5050959;28;20673;-77
2022/03/31 07:33:05;;;;;;;4.30;3.90;;;4.50;99.90;;;;;;5051128;28;20164;-78
2022/03/31 07:35:33;;;;;;;5.50;5.00;;;4.60;99.90;;;;;;5050551;28;20174;-78
2022/03/31 07:38:00;;;;;;;6.80;5.78;;;4.70;99.90;;;;;;5052573;28;20250;-79
2022/03/31 07:40:26;;;;;;;7.15;5.45;;;4.60;99.90;;;;;;5051189;28;20171;-78
2022/03/31 07:42:53;;;;;;;7.00;5.38;;;4.60;99.90;;;;;;5052823;28;20171;-79
2022/03/31 07:45:19;;;;;;;5.55;5.05;;;4.60;99.90;;;;;;5051293;28;20547;-78
2022/03/31 07:47:45;;;;;;;5.10;4.45;;;4.60;99.90;;;;;;5052305;28;20250;-78
2022/03/31 07:50:13;;;;;;;5.45;4.88;;;4.80;99.90;;;;;;5052217;28;20191;-78
2022/03/31 07:52:40;;;;;;;5.85;4.60;;;4.80;99.90;;;;;;5050692;28;20182;-79
2022/03/31 07:55:07;;;;;;;5.75;4.78;;;4.90;99.90;;;;;;5051615;28;20183;-79
2022/03/31 07:57:33;;;;;;;5.25;4.75;;;5.00;99.90;;;;;;5051932;28;20269;-78
2022/03/31 07:59:59;;;;;;;9.13;5.03;;;5.10;99.90;;;;;;5051963;28;20295;-79
2022/03/31 08:02:26;;;;;;;4.70;4.28;;;5.10;99.90;;;;;;5052355;28;20250;-78
2022/03/31 08:04:52;;;;;;;5.28;4.22;;;5.10;99.90;;;;;;5052136;28;20166;-78
2022/03/31 08:07:18;;;;;;;4.40;4.00;;;5.00;99.90;;;;;;5050532;28;20190;-78
2022/03/31 08:09:43;;;;;;;4.75;4.35;;;5.10;99.90;;;;;;5050210;28;20237;-78
2022/03/31 08:12:10;;;;;;;5.57;5.07;;;5.30;99.90;;;;;;5051927;28;20505;-78
2022/03/31 08:14:36;;;;;;;4.72;4.32;;;5.30;99.90;;;;;;5051748;28;20201;-78
2022/03/31 08:17:02;;;;;;;4.20;3.90;;;5.30;99.90;;;;;;5050648;28;20223;-79
2022/03/31 08:19:32;;;;;;;4.07;3.72;;;5.30;99.90;;;;;;5050773;28;20159;-78
2022/03/31 08:22:00;;;;;;;4.03;3.72;;;5.20;99.90;;;;;;5050007;28;20189;-79
2022/03/31 08:24:26;;;;;;;4.00;3.70;;;5.30;99.90;;;;;;5032729;28;20630;-78
2022/03/31 08:26:52;;;;;;;3.00;2.70;;;5.50;99.90;;;;;;5031797;28;20255;-79
2022/03/31 08:29:18;;;;;;;4.30;2.80;;;5.50;99.90;;;;;;5031944;28;20160;-78
2022/03/31 08:31:43;;;;;;;5.45;2.58;;;5.50;99.90;;;;;;5032109;28;20730;-78
2022/03/31 08:34:09;;;;;;;2.88;2.65;;;5.50;99.90;;;;;;5046311;28;20171;-79
2022/03/31 08:36:36;;;;;;;4.05;2.60;;;5.50;99.90;;;;;;5050573;28;20224;-81
2022/03/31 08:39:03;;;;;;;4.47;2.67;;;5.50;99.90;;;;;;5051425;28;20325;-77
2022/03/31 08:41:29;;;;;;;2.40;2.20;;;5.50;99.90;;;;;;5051031;28;20163;-80
2022/03/31 08:43:56;;;;;;;3.65;3.25;;;5.60;99.90;;;;;;5049023;28;20168;-77
2022/03/31 08:46:23;;;;;;;2.80;2.22;;;5.60;99.90;;;;;;5048112;28;20171;-80
2022/03/31 08:48:49;;;;;;;2.63;2.15;;;5.70;99.90;;;;;;5041077;28;20195;-80
2022/03/31 08:51:15;;;;;;;4.05;2.55;;;5.70;99.90;;;;;;5050728;28;20222;-77
2022/03/31 08:53:41;;;;;;;2.85;2.60;;;5.80;99.90;;;;;;5052067;28;20214;-77
2022/03/31 08:56:09;;;;;;;12.63;2.85;;;6.00;99.90;;;;;;5050555;28;20270;-78
2022/03/31 08:58:35;;;;;;;5.78;2.53;;;5.90;99.90;;;;;;5034176;28;20214;-77
2022/03/31 09:01:00;;;;;;;2.90;2.70;;;5.80;99.90;;;;;;5036281;28;20694;-77
2022/03/31 09:03:37;;;;;;;2.75;2.10;;;5.80;99.90;;;;;;5045550;28;20701;-87
2022/03/31 09:06:04;;;;;;;11.88;2.33;;;5.80;99.90;;;;;;5031794;28;20184;-79
2022/03/31 09:08:30;;;;;;;2.13;1.92;;;6.00;99.90;;;;;;5030228;28;20184;-79
2022/03/31 09:11:00;;;;;;;2.05;1.95;;;6.10;99.90;;;;;;5030299;28;20200;-78
2022/03/31 09:13:40;;;;;;;2.10;1.90;;;6.20;99.90;;;;;;5031663;28;20160;-79
2022/03/31 09:16:09;;;;;;;2.15;1.95;;;6.30;99.90;;;;;;5035503;28;20176;-78
2022/03/31 09:18:36;;;;;;;5.13;2.30;;;6.30;99.90;;;;;;5035097;28;20184;-79
2022/03/31 09:21:09;;;;;;;2.28;2.05;;;6.10;99.90;;;;;;5035276;28;20222;-81
2022/03/31 09:23:46;;;;;;;2.70;2.50;;;6.40;99.90;;;;;;5035649;28;20164;-80
2022/03/31 09:26:14;;;;;;;2.70;2.13;;;6.20;99.90;;;;;;5035623;28;20171;-82
2022/03/31 09:28:43;;;;;;;2.20;2.00;;;6.00;99.90;;;;;;5035368;28;20233;-81
2022/03/31 09:31:10;;;;;;;3.40;2.25;;;6.10;99.90;;;;;;5035560;28;20214;-78
2022/03/31 09:33:38;;;;;;;4.60;1.50;;;6.20;99.90;;;;;;5036475;28;20194;-83
2022/03/31 09:36:07;;;;;;;2.67;2.45;;;6.40;99.90;;;;;;5040578;28;20516;-79
2022/03/31 09:38:36;;;;;;;2.20;1.98;;;6.40;99.90;;;;;;5034303;28;20213;-80
2022/03/31 09:41:03;;;;;;;2.60;2.35;;;6.60;99.90;;;;;;5036180;28;20178;-78
2022/03/31 09:43:42;;;;;;;2.42;2.25;;;6.70;99.90;;;;;;5036283;28;20684;-81
2022/03/31 09:46:35;;;;;;;2.03;1.83;;;6.60;99.90;;;;;;5035252;28;20178;-80
2022/03/31 09:49:24;;;;;;;3.22;2.47;;;6.60;99.90;;;;;;5045661;28;20211;-79
2022/03/31 09:51:59;;;;;;;2.33;2.13;;;6.50;99.90;;;;;;5040069;28;20650;-80
2022/03/31 09:54:27;;;;;;;2.50;1.92;;;6.40;99.90;;;;;;5041713;28;20159;-79
2022/03/31 09:56:54;;;;;;;2.38;2.17;;;6.50;99.90;;;;;;5052495;28;20183;-85
2022/03/31 09:59:20;;;;;;;2.83;2.30;;;6.80;99.90;;;;;;5033830;28;20249;-81
2022/03/31 10:01:46;;;;;;;2.50;2.30;;;6.60;99.90;;;;;;5034455;28;20539;-78
2022/03/31 10:04:14;;;;;;;3.30;2.45;;;6.50;99.90;;;;;;5034434;28;20234;-79
2022/03/31 10:06:42;;;;;;;2.42;1.83;;;6.40;99.90;;;;;;5033132;28;20546;-79
2022/03/31 10:09:09;;;;;;;2.83;2.45;;;6.60;99.90;;;;;;5034081;28;20176;-79
2022/03/31 10:11:39;;;;;;;2.75;2.25;;;7.00;99.90;;;;;;5033967;28;20246;-79
2022/03/31 10:14:43;;;;;;;5.18;2.35;;;7.10;99.90;;;;;;5034193;28;20167;-79
2022/03/31 10:17:10;;;;;;;2.33;2.13;;;7.30;99.90;;;;;;5032897;28;20560;-82
2022/03/31 10:19:37;;;;;;;2.67;2.47;;;7.20;99.90;;;;;;5034225;28;20166;-78
2022/03/31 10:22:10;;;;;;;2.60;2.40;;;7.00;99.90;;;;;;5034033;28;20682;-79
2022/03/31 10:24:42;;;;;;;2.95;2.53;;;7.20;99.90;;;;;;5033376;28;20230;-79
2022/03/31 10:27:09;;;;;;;8.48;2.33;;;7.10;99.90;;;;;;5033469;28;20196;-79
2022/03/31 10:29:41;;;;;;;2.20;2.00;;;7.10;99.90;;;;;;5034044;28;20194;-79
2022/03/31 10:32:18;;;;;;;6.78;2.10;;;7.00;99.90;;;;;;5034042;28;20218;-82
2022/03/31 10:34:48;;;;;;;2.30;1.95;;;7.10;99.90;;;;;;5034183;28;20168;-78
2022/03/31 10:37:17;;;;;;;2.80;2.47;;;7.30;99.90;;;;;;5033712;28;20227;-80
2022/03/31 10:39:52;;;;;;;1.98;1.83;;;7.10;99.90;;;;;;5049377;28;20599;-81
2022/03/31 10:42:18;;;;;;;4.55;1.70;;;7.10;99.90;;;;;;5032316;28;20167;-81
2022/03/31 10:44:44;;;;;;;2.60;1.92;;;7.40;99.90;;;;;;5032292;28;20563;-81
2022/03/31 10:47:10;;;;;;;4.68;2.15;;;7.60;99.90;;;;;;5032419;28;20234;-83
2022/03/31 10:49:36;;;;;;;9.23;2.28;;;7.80;99.90;;;;;;5032189;28;20179;-80
2022/03/31 10:52:16;;;;;;;2.67;2.22;;;7.90;99.90;;;;;;5033566;28;20168;-82
2022/03/31 10:54:42;;;;;;;2.88;2.20;;;7.80;99.90;;;;;;5031935;28;20188;-81
2022/03/31 10:57:09;;;;;;;3.25;2.03;;;7.70;99.90;;;;;;5033159;28;20188;-80
2022/03/31 10:59:36;;;;;;;6.97;3.78;;;7.70;99.90;;;;;;5033691;28;20186;-80
2022/03/31 11:02:14;;;;;;;3.95;3.65;;;7.60;99.90;;;;;;5033392;28;20167;-79
2022/03/31 11:04:44;;;;;;;4.95;4.53;;;7.60;99.90;;;;;;5032859;28;20818;-80
2022/03/31 11:07:18;;;;;;;5.47;4.25;;;7.50;99.90;;;;;;5031723;28;20544;-79
2022/03/31 11:09:45;;;;;;;4.68;4.28;;;7.30;99.90;;;;;;5033052;28;20656;-79
2022/03/31 11:12:28;;;;;;;3.28;2.97;;;7.40;99.90;;;;;;5032038;28;20179;-79
2022/03/31 11:15:00;;;;;;;3.28;2.85;;;7.40;99.90;;;;;;5035564;28;20163;-78
2022/03/31 11:17:28;;;;;;;4.00;2.97;;;7.70;99.90;;;;;;5032885;28;20541;-78
2022/03/31 11:19:55;;;;;;;2.90;2.35;;;8.00;99.90;;;;;;5032879;28;20168;-78
2022/03/31 11:22:22;;;;;;;1.77;1.67;;;8.10;99.90;;;;;;5033081;28;20179;-76
2022/03/31 11:24:50;;;;;;;6.40;1.90;;;8.10;99.90;;;;;;5032868;28;20507;-77
2022/03/31 11:27:17;;;;;;;1.98;1.73;;;8.30;99.90;;;;;;5032553;28;20179;-77
2022/03/31 11:29:43;;;;;;;2.38;1.70;;;8.30;99.90;;;;;;5032246;28;20643;-77
2022/03/31 11:32:08;;;;;;;4.10;1.92;;;8.30;99.90;;;;;;5033051;28;20175;-79
2022/03/31 11:34:36;;;;;;;2.10;2.00;;;8.10;99.90;;;;;;5031505;28;20196;-79
2022/03/31 11:37:01;;;;;;;2.33;1.90;;;8.00;99.90;;;;;;5028921;28;20294;-81
2022/03/31 11:39:29;;;;;;;5.72;2.50;;;8.10;99.90;;;;;;5042054;28;20271;-78
2022/03/31 11:42:00;;;;;;;5.90;3.05;;;8.30;99.90;;;;;;5050294;28;20193;-78
2022/03/31 11:44:29;;;;;;;6.07;2.63;;;8.50;99.90;;;;;;5043535;28;20164;-78
2022/03/31 11:46:55;;;;;;;2.95;2.67;;;8.80;99.90;;;;;;5031006;28;20893;-81
2022/03/31 11:49:26;;;;;;;5.95;3.72;;;9.00;99.90;;;;;;5043419;28;20270;-78
2022/03/31 11:51:57;;;;;;;4.68;3.60;;;9.40;99.90;;;;;;5050858;28;20206;-81
2022/03/31 11:54:24;;;;;;;11.48;3.35;;;10.00;99.90;;;;;;5036985;28;20702;-79
2022/03/31 11:57:21;;;;;;;3.70;3.40;;;10.10;99.90;;;;;;5047659;28;20651;-78
2022/03/31 11:59:47;;;;;;;5.82;3.53;;;10.30;99.90;;;;;;5028165;28;20565;-77
2022/03/31 12:02:15;;;;;;;3.55;3.28;;;10.10;99.90;;;;;;5032157;28;20170;-78
2022/03/31 12:04:46;;;;;;;3.38;3.17;;;9.90;99.90;;;;;;5032193;28;20172;-77
2022/03/31 12:07:13;;;;;;;3.95;3.65;;;9.60;99.90;;;;;;5032200;28;20234;-77
2022/03/31 12:09:41;;;;;;;7.55;4.30;;;9.10;99.90;;;;;;5030884;28;20163;-78
2022/03/31 12:12:11;;;;;;;3.88;3.58;;;9.10;99.90;;;;;;5031205;28;20258;-84
2022/03/31 12:14:38;;;;;;;4.03;3.63;;;9.10;99.90;;;;;;5032518;28;20164;-78
2022/03/31 12:17:04;;;;;;;3.33;3.10;;;9.30;99.90;;;;;;5032737;28;20283;-77
2022/03/31 12:19:42;;;;;;;2.60;2.40;;;9.40;99.90;;;;;;5032536;28;20210;-75
2022/03/31 12:22:09;;;;;;;2.70;2.40;;;9.40;99.90;;;;;;5034170;28;20166;-77
2022/03/31 12:24:46;;;;;;;7.93;2.30;;;9.40;99.90;;;;;;5032088;28;20616;-77
2022/03/31 12:27:16;;;;;;;2.70;2.50;;;9.70;99.90;;;;;;5031892;28;20198;-78
2022/03/31 12:29:42;;;;;;;2.80;2.60;;;9.80;99.90;;;;;;5031657;28;20168;-78
2022/03/31 12:32:10;;;;;;;3.42;2.53;;;9.90;99.90;;;;;;5032201;28;20202;-77
2022/03/31 12:34:38;;;;;;;2.08;1.90;;;9.80;99.90;;;;;;5032361;28;20225;-78
2022/03/31 12:37:06;;;;;;;8.05;3.05;;;9.90;99.90;;;;;;5031748;28;20196;-81
2022/03/31 12:39:40;;;;;;;4.25;2.92;;;10.10;99.90;;;;;;5031896;28;20176;-77
2022/03/31 12:42:10;;;;;;;2.70;2.50;;;9.80;99.90;;;;;;5030810;28;20171;-78
2022/03/31 12:44:39;;;;;;;3.65;2.55;;;9.80;99.90;;;;;;5047397;28;20262;-80
2022/03/31 12:47:06;;;;;;;2.60;2.40;;;9.90;99.90;;;;;;5030396;28;20199;-78
2022/03/31 12:49:34;;;;;;;2.67;2.28;;;9.90;99.90;;;;;;5033064;28;20176;-78
2022/03/31 12:52:03;;;;;;;2.53;2.33;;;10.20;99.90;;;;;;5035732;28;20203;-77